»·PEaware :: N6515D KSNA-KWJF

N6515D :: KSNA-KWJF

FLIGHT INFORMATION

Flight Status: Arrived
Operator: Privately registered:
United States
More flights under this callsign
Pilot: Charles S. (11412)
Aircraft: Unknown
(DA62)
More flights by this aircraft type
Origin: KSNA John Wayne-Orange Co
United States
Destination: KWJF Gen Fox
United States
More flights between these airports :: More routes between these airports
Route: +SLI V8 POXKU V363 BAYJY V186 DARTS V459 BERRI V201 PMD
File this flight plan on PilotEdge
Remarks:
Altitude:
(Current/Filed)
11,000ft
Speed:
(Current/Filed)
190kts
Departed: 05-May-18 08:36 AM
Arrived: 05-May-18 09:13 AM
Distance/Time
Traveled:
66nm/0:37
Distance/Time
To Go:
Arrived

Flight Plot

Page will automatically refresh every two minutes.

Flight plan parsing failed; only flown route is shown


Map Options




Map Legend


Flown Route
Filed Route
Departure Airport
Arrival Airport
Navaid (VOR, NDB)
Fix

Horizontal Profiles

Position Reports

Time Latitude Longitude Heading Altitude Ground
Speed
05-May-18 08:23 33.672219 -117.873701 206 60ft 0kts
05-May-18 08:24 33.672219 -117.873701 206 60ft 0kts
05-May-18 08:25 33.672219 -117.873701 206 60ft 0kts
05-May-18 08:27 33.672219 -117.873701 206 60ft 0kts
05-May-18 08:28 33.672219 -117.873701 206 60ft 0kts
05-May-18 08:28 33.672219 -117.873701 206 60ft 0kts
05-May-18 08:29 33.672219 -117.873701 206 60ft 0kts
05-May-18 08:30 33.672219 -117.873701 206 60ft 0kts
05-May-18 08:31 33.671763 -117.872984 98 60ft 7kts
05-May-18 08:32 33.672362 -117.872423 26 60ft 22kts
05-May-18 08:33 33.677014 -117.869473 28 60ft 22kts
05-May-18 08:34 33.681201 -117.866450 110 60ft 0kts
05-May-18 08:35 33.675278 -117.869091 207 60ft 89kts
05-May-18 08:36 33.658313 -117.892274 242 693ft 100kts
05-May-18 08:37 33.645045 -117.921383 242 1165ft 119kts
05-May-18 08:38 33.628509 -117.957821 242 1992ft 129kts
05-May-18 08:39 33.637626 -117.986271 16 2825ft 129kts
05-May-18 08:40 33.671398 -117.970366 20 3629ft 132kts
05-May-18 08:41 33.705522 -117.953693 22 4426ft 133kts
05-May-18 08:42 33.740744 -117.936776 22 5041ft 145kts
05-May-18 08:43 33.776988 -117.919586 22 5829ft 138kts
05-May-18 08:44 33.813080 -117.897268 66 6015ft 161kts
05-May-18 08:45 33.830291 -117.845733 62 5998ft 169kts
05-May-18 08:46 33.850182 -117.794515 63 5970ft 172kts
05-May-18 08:47 33.894673 -117.783026 1 5986ft 172kts
05-May-18 08:48 33.942547 -117.783634 0 5988ft 173kts
05-May-18 08:49 33.990455 -117.784763 0 5997ft 173kts
05-May-18 08:50 34.019957 -117.823470 290 6003ft 178kts
05-May-18 08:51 34.035886 -117.876693 291 6360ft 162kts
05-May-18 08:52 34.050648 -117.924911 291 7128ft 149kts
05-May-18 08:53 34.071561 -117.965508 321 7920ft 144kts
05-May-18 08:54 34.101398 -117.996345 321 8699ft 145kts
05-May-18 08:55 34.131855 -118.027631 321 9488ft 146kts
05-May-18 08:56 34.163838 -118.060063 321 10000ft 165kts
05-May-18 08:57 34.201688 -118.097964 321 9992ft 184kts
05-May-18 08:58 34.241478 -118.137702 321 9990ft 188kts
05-May-18 08:59 34.281721 -118.177877 322 10007ft 188kts
05-May-18 09:00 34.322334 -118.217713 326 10030ft 188kts
05-May-18 09:01 34.369339 -118.204063 26 10051ft 181kts
05-May-18 09:02 34.415522 -118.178961 27 9975ft 184kts
05-May-18 09:03 34.461677 -118.153514 27 9038ft 181kts
05-May-18 09:04 34.506591 -118.128131 26 7641ft 177kts
05-May-18 09:05 34.551621 -118.105343 10 6260ft 185kts
05-May-18 09:06 34.600049 -118.104213 357 5616ft 167kts
05-May-18 09:07 34.646917 -118.102589 9 4793ft 182kts
05-May-18 09:08 34.687837 -118.129432 330 4188ft 173kts
05-May-18 09:09 34.727664 -118.153883 334 3569ft 127kts
05-May-18 09:10 34.749623 -118.174709 286 2963ft 103kts
05-May-18 09:11 34.744010 -118.207537 252 2370ft 87kts
05-May-18 09:13 34.739567 -118.217944 162 2343ft 10kts
05-May-18 09:14 34.739383 -118.218075 250 2343ft 0kts

Navigation Log

Ident Type
Flight plan parsing failed, navigation log unavailable